sensor_id;sensor_type;location;lat;lon;timestamp;P1;durP1;ratioP1;P2;durP2;ratioP2
17848;SDS011;9050;48.746;9.232;2023-03-25T00:02:17;0.90;;;0.90;;
17848;SDS011;9050;48.746;9.232;2023-03-25T00:04:44;0.80;;;0.80;;
17848;SDS011;9050;48.746;9.232;2023-03-25T00:07:17;0.93;;;0.93;;
17848;SDS011;9050;48.746;9.232;2023-03-25T00:09:44;0.90;;;0.90;;
17848;SDS011;9050;48.746;9.232;2023-03-25T00:12:11;1.00;;;1.00;;
17848;SDS011;9050;48.746;9.232;2023-03-25T00:14:38;1.00;;;1.00;;
17848;SDS011;9050;48.746;9.232;2023-03-25T00:17:06;1.13;;;1.13;;
17848;SDS011;9050;48.746;9.232;2023-03-25T00:19:34;1.00;;;1.00;;
17848;SDS011;9050;48.746;9.232;2023-03-25T00:22:01;1.00;;;1.00;;
17848;SDS011;9050;48.746;9.232;2023-03-25T00:24:29;1.10;;;1.10;;
17848;SDS011;9050;48.746;9.232;2023-03-25T00:26:56;1.10;;;1.10;;
17848;SDS011;9050;48.746;9.232;2023-03-25T00:29:23;0.90;;;0.90;;
17848;SDS011;9050;48.746;9.232;2023-03-25T00:31:50;0.90;;;0.90;;
17848;SDS011;9050;48.746;9.232;2023-03-25T00:34:17;0.90;;;0.90;;
17848;SDS011;9050;48.746;9.232;2023-03-25T00:36:44;1.10;;;1.10;;
17848;SDS011;9050;48.746;9.232;2023-03-25T00:39:11;1.10;;;1.10;;
17848;SDS011;9050;48.746;9.232;2023-03-25T00:41:39;0.93;;;0.93;;
17848;SDS011;9050;48.746;9.232;2023-03-25T00:44:08;1.17;;;1.17;;
17848;SDS011;9050;48.746;9.232;2023-03-25T00:46:36;1.00;;;1.00;;
17848;SDS011;9050;48.746;9.232;2023-03-25T00:49:03;1.00;;;1.00;;
17848;SDS011;9050;48.746;9.232;2023-03-25T00:51:30;0.90;;;0.90;;
17848;SDS011;9050;48.746;9.232;2023-03-25T00:53:58;1.03;;;1.03;;
17848;SDS011;9050;48.746;9.232;2023-03-25T00:56:25;1.33;;;1.33;;
17848;SDS011;9050;48.746;9.232;2023-03-25T00:58:54;1.10;;;1.10;;
17848;SDS011;9050;48.746;9.232;2023-03-25T01:01:22;1.20;;;1.20;;
17848;SDS011;9050;48.746;9.232;2023-03-25T01:03:51;1.20;;;1.20;;
17848;SDS011;9050;48.746;9.232;2023-03-25T01:06:22;0.90;;;0.90;;
17848;SDS011;9050;48.746;9.232;2023-03-25T01:08:53;1.20;;;1.20;;
17848;SDS011;9050;48.746;9.232;2023-03-25T01:11:21;1.00;;;1.00;;
17848;SDS011;9050;48.746;9.232;2023-03-25T01:13:50;1.10;;;1.10;;
17848;SDS011;9050;48.746;9.232;2023-03-25T01:16:21;0.90;;;0.90;;
17848;SDS011;9050;48.746;9.232;2023-03-25T01:18:48;1.10;;;1.10;;
17848;SDS011;9050;48.746;9.232;2023-03-25T01:21:15;1.07;;;1.07;;
17848;SDS011;9050;48.746;9.232;2023-03-25T01:23:42;1.00;;;1.00;;
17848;SDS011;9050;48.746;9.232;2023-03-25T01:26:10;0.93;;;0.93;;
17848;SDS011;9050;48.746;9.232;2023-03-25T01:28:38;1.10;;;1.10;;
17848;SDS011;9050;48.746;9.232;2023-03-25T01:31:07;1.10;;;1.10;;
17848;SDS011;9050;48.746;9.232;2023-03-25T01:33:35;1.10;;;1.10;;
17848;SDS011;9050;48.746;9.232;2023-03-25T01:36:02;1.17;;;1.17;;
17848;SDS011;9050;48.746;9.232;2023-03-25T01:38:33;1.10;;;1.10;;
17848;SDS011;9050;48.746;9.232;2023-03-25T01:41:00;1.07;;;1.07;;
17848;SDS011;9050;48.746;9.232;2023-03-25T01:43:28;1.13;;;1.13;;
17848;SDS011;9050;48.746;9.232;2023-03-25T01:45:55;1.20;;;1.20;;
17848;SDS011;9050;48.746;9.232;2023-03-25T01:48:24;1.33;;;1.33;;
17848;SDS011;9050;48.746;9.232;2023-03-25T01:51:00;1.00;;;1.00;;
17848;SDS011;9050;48.746;9.232;2023-03-25T01:53:32;1.20;;;1.20;;
17848;SDS011;9050;48.746;9.232;2023-03-25T01:55:59;1.23;;;1.23;;
17848;SDS011;9050;48.746;9.232;2023-03-25T01:58:29;1.20;;;1.20;;
17848;SDS011;9050;48.746;9.232;2023-03-25T02:00:58;1.10;;;1.10;;
17848;SDS011;9050;48.746;9.232;2023-03-25T02:03:27;1.20;;;1.20;;
17848;SDS011;9050;48.746;9.232;2023-03-25T02:06:01;1.10;;;1.10;;
17848;SDS011;9050;48.746;9.232;2023-03-25T02:08:31;1.10;;;1.10;;
17848;SDS011;9050;48.746;9.232;2023-03-25T02:11:03;0.90;;;0.90;;
17848;SDS011;9050;48.746;9.232;2023-03-25T02:13:30;1.20;;;1.20;;
17848;SDS011;9050;48.746;9.232;2023-03-25T02:16:17;1.00;;;1.00;;
17848;SDS011;9050;48.746;9.232;2023-03-25T02:18:54;1.00;;;1.00;;
17848;SDS011;9050;48.746;9.232;2023-03-25T02:27:35;1.10;;;1.10;;
17848;SDS011;9050;48.746;9.232;2023-03-25T02:30:14;1.13;;;1.13;;
17848;SDS011;9050;48.746;9.232;2023-03-25T02:33:05;1.10;;;1.10;;
17848;SDS011;9050;48.746;9.232;2023-03-25T02:36:13;1.10;;;1.10;;
17848;SDS011;9050;48.746;9.232;2023-03-25T02:39:08;1.20;;;1.20;;
17848;SDS011;9050;48.746;9.232;2023-03-25T02:41:39;1.20;;;1.20;;
17848;SDS011;9050;48.746;9.232;2023-03-25T02:44:10;1.03;;;1.03;;
17848;SDS011;9050;48.746;9.232;2023-03-25T02:46:40;0.90;;;0.90;;
17848;SDS011;9050;48.746;9.232;2023-03-25T02:49:12;1.07;;;1.07;;
17848;SDS011;9050;48.746;9.232;2023-03-25T02:51:43;1.20;;;1.20;;
17848;SDS011;9050;48.746;9.232;2023-03-25T02:54:16;1.00;;;1.00;;
17848;SDS011;9050;48.746;9.232;2023-03-25T02:56:44;1.00;;;1.00;;
17848;SDS011;9050;48.746;9.232;2023-03-25T02:59:14;1.10;;;1.10;;
17848;SDS011;9050;48.746;9.232;2023-03-25T03:01:43;1.10;;;1.10;;
17848;SDS011;9050;48.746;9.232;2023-03-25T03:04:14;0.97;;;0.97;;
17848;SDS011;9050;48.746;9.232;2023-03-25T03:06:41;0.90;;;0.90;;
17848;SDS011;9050;48.746;9.232;2023-03-25T03:09:15;1.00;;;1.00;;
17848;SDS011;9050;48.746;9.232;2023-03-25T03:11:52;1.20;;;1.20;;
17848;SDS011;9050;48.746;9.232;2023-03-25T03:14:42;1.10;;;1.10;;
17848;SDS011;9050;48.746;9.232;2023-03-25T03:17:20;1.00;;;1.00;;
17848;SDS011;9050;48.746;9.232;2023-03-25T03:19:53;1.20;;;1.20;;
17848;SDS011;9050;48.746;9.232;2023-03-25T03:22:30;1.00;;;1.00;;
17848;SDS011;9050;48.746;9.232;2023-03-25T03:25:08;0.90;;;0.90;;
17848;SDS011;9050;48.746;9.232;2023-03-25T03:27:42;1.10;;;1.10;;
17848;SDS011;9050;48.746;9.232;2023-03-25T03:30:16;1.10;;;1.10;;
17848;SDS011;9050;48.746;9.232;2023-03-25T03:32:48;1.10;;;1.10;;
17848;SDS011;9050;48.746;9.232;2023-03-25T03:35:20;1.30;;;1.30;;
17848;SDS011;9050;48.746;9.232;2023-03-25T03:37:52;0.90;;;0.90;;
17848;SDS011;9050;48.746;9.232;2023-03-25T03:40:26;0.93;;;0.93;;
17848;SDS011;9050;48.746;9.232;2023-03-25T03:42:56;0.90;;;0.90;;
17848;SDS011;9050;48.746;9.232;2023-03-25T03:45:26;1.10;;;1.10;;
17848;SDS011;9050;48.746;9.232;2023-03-25T03:47:57;1.27;;;1.27;;
17848;SDS011;9050;48.746;9.232;2023-03-25T03:50:27;1.13;;;1.13;;
17848;SDS011;9050;48.746;9.232;2023-03-25T03:53:00;1.30;;;1.30;;
17848;SDS011;9050;48.746;9.232;2023-03-25T03:55:33;1.13;;;1.13;;
17848;SDS011;9050;48.746;9.232;2023-03-25T03:58:05;1.20;;;1.20;;
17848;SDS011;9050;48.746;9.232;2023-03-25T04:00:40;1.10;;;1.10;;
17848;SDS011;9050;48.746;9.232;2023-03-25T04:03:14;1.20;;;1.20;;
17848;SDS011;9050;48.746;9.232;2023-03-25T04:05:54;1.17;;;1.17;;
17848;SDS011;9050;48.746;9.232;2023-03-25T04:08:27;1.07;;;1.07;;
17848;SDS011;9050;48.746;9.232;2023-03-25T04:10:59;1.00;;;1.00;;
17848;SDS011;9050;48.746;9.232;2023-03-25T04:13:32;1.20;;;1.20;;
17848;SDS011;9050;48.746;9.232;2023-03-25T04:16:01;1.30;;;1.30;;
17848;SDS011;9050;48.746;9.232;2023-03-25T04:18:28;1.10;;;1.10;;
17848;SDS011;9050;48.746;9.232;2023-03-25T04:20:57;1.30;;;1.30;;
17848;SDS011;9050;48.746;9.232;2023-03-25T04:23:24;1.50;;;1.50;;
17848;SDS011;9050;48.746;9.232;2023-03-25T04:25:54;1.10;;;1.10;;
17848;SDS011;9050;48.746;9.232;2023-03-25T04:28:23;1.30;;;1.30;;
17848;SDS011;9050;48.746;9.232;2023-03-25T04:30:50;1.10;;;1.10;;
17848;SDS011;9050;48.746;9.232;2023-03-25T04:33:19;0.93;;;0.93;;
17848;SDS011;9050;48.746;9.232;2023-03-25T04:35:46;1.30;;;1.30;;
17848;SDS011;9050;48.746;9.232;2023-03-25T04:38:15;1.07;;;1.07;;
17848;SDS011;9050;48.746;9.232;2023-03-25T04:40:42;1.00;;;1.00;;
17848;SDS011;9050;48.746;9.232;2023-03-25T04:43:10;1.20;;;1.20;;
17848;SDS011;9050;48.746;9.232;2023-03-25T04:45:39;1.10;;;1.10;;
17848;SDS011;9050;48.746;9.232;2023-03-25T04:48:15;1.00;;;1.00;;
17848;SDS011;9050;48.746;9.232;2023-03-25T04:50:46;1.27;;;1.27;;
17848;SDS011;9050;48.746;9.232;2023-03-25T04:53:15;1.13;;;1.13;;
17848;SDS011;9050;48.746;9.232;2023-03-25T04:55:42;1.30;;;1.30;;
17848;SDS011;9050;48.746;9.232;2023-03-25T04:58:11;1.10;;;1.10;;
17848;SDS011;9050;48.746;9.232;2023-03-25T05:00:41;1.07;;;1.07;;
17848;SDS011;9050;48.746;9.232;2023-03-25T05:03:09;1.27;;;1.27;;
17848;SDS011;9050;48.746;9.232;2023-03-25T05:05:36;0.87;;;0.87;;
17848;SDS011;9050;48.746;9.232;2023-03-25T05:08:04;1.23;;;1.23;;
17848;SDS011;9050;48.746;9.232;2023-03-25T05:10:32;1.30;;;1.30;;
17848;SDS011;9050;48.746;9.232;2023-03-25T05:13:00;1.40;;;1.40;;
17848;SDS011;9050;48.746;9.232;2023-03-25T05:15:29;1.50;;;1.50;;
17848;SDS011;9050;48.746;9.232;2023-03-25T05:18:00;1.60;;;1.60;;
17848;SDS011;9050;48.746;9.232;2023-03-25T05:20:27;1.30;;;1.30;;
17848;SDS011;9050;48.746;9.232;2023-03-25T05:22:54;0.97;;;0.97;;
17848;SDS011;9050;48.746;9.232;2023-03-25T05:25:21;1.20;;;1.20;;
17848;SDS011;9050;48.746;9.232;2023-03-25T05:27:48;1.37;;;1.37;;
17848;SDS011;9050;48.746;9.232;2023-03-25T05:30:15;1.10;;;1.10;;
17848;SDS011;9050;48.746;9.232;2023-03-25T05:32:42;1.10;;;1.10;;
17848;SDS011;9050;48.746;9.232;2023-03-25T05:35:16;0.80;;;0.80;;
17848;SDS011;9050;48.746;9.232;2023-03-25T05:37:44;1.07;;;1.07;;
17848;SDS011;9050;48.746;9.232;2023-03-25T05:40:14;1.13;;;1.13;;
17848;SDS011;9050;48.746;9.232;2023-03-25T05:42:41;1.20;;;1.20;;
17848;SDS011;9050;48.746;9.232;2023-03-25T05:45:10;1.17;;;1.17;;
17848;SDS011;9050;48.746;9.232;2023-03-25T05:47:37;1.30;;;1.30;;
17848;SDS011;9050;48.746;9.232;2023-03-25T05:50:05;1.00;;;1.00;;
17848;SDS011;9050;48.746;9.232;2023-03-25T05:52:35;1.10;;;1.10;;
17848;SDS011;9050;48.746;9.232;2023-03-25T05:55:05;1.47;;;1.47;;
17848;SDS011;9050;48.746;9.232;2023-03-25T05:57:35;1.10;;;1.10;;
17848;SDS011;9050;48.746;9.232;2023-03-25T06:00:02;1.10;;;1.10;;
17848;SDS011;9050;48.746;9.232;2023-03-25T06:02:32;1.00;;;1.00;;
17848;SDS011;9050;48.746;9.232;2023-03-25T06:04:59;0.83;;;0.83;;
17848;SDS011;9050;48.746;9.232;2023-03-25T06:07:26;1.10;;;1.10;;
17848;SDS011;9050;48.746;9.232;2023-03-25T06:09:55;1.10;;;1.10;;
17848;SDS011;9050;48.746;9.232;2023-03-25T06:12:22;1.17;;;1.17;;
17848;SDS011;9050;48.746;9.232;2023-03-25T06:14:51;1.10;;;1.10;;
17848;SDS011;9050;48.746;9.232;2023-03-25T06:17:19;1.30;;;1.30;;
17848;SDS011;9050;48.746;9.232;2023-03-25T06:19:47;1.10;;;1.10;;
17848;SDS011;9050;48.746;9.232;2023-03-25T06:22:14;1.10;;;1.10;;
17848;SDS011;9050;48.746;9.232;2023-03-25T06:24:41;1.00;;;1.00;;
17848;SDS011;9050;48.746;9.232;2023-03-25T06:27:11;1.10;;;1.10;;
17848;SDS011;9050;48.746;9.232;2023-03-25T06:29:39;0.80;;;0.80;;
17848;SDS011;9050;48.746;9.232;2023-03-25T06:32:06;0.90;;;0.90;;
17848;SDS011;9050;48.746;9.232;2023-03-25T06:34:34;1.13;;;1.13;;
17848;SDS011;9050;48.746;9.232;2023-03-25T06:37:01;1.13;;;1.13;;
17848;SDS011;9050;48.746;9.232;2023-03-25T06:39:28;0.90;;;0.90;;
17848;SDS011;9050;48.746;9.232;2023-03-25T06:41:56;0.90;;;0.90;;
17848;SDS011;9050;48.746;9.232;2023-03-25T06:44:24;0.80;;;0.80;;
17848;SDS011;9050;48.746;9.232;2023-03-25T06:46:52;0.80;;;0.80;;
17848;SDS011;9050;48.746;9.232;2023-03-25T06:49:19;0.77;;;0.77;;
17848;SDS011;9050;48.746;9.232;2023-03-25T06:51:46;0.90;;;0.90;;
17848;SDS011;9050;48.746;9.232;2023-03-25T06:54:13;0.80;;;0.80;;
17848;SDS011;9050;48.746;9.232;2023-03-25T06:56:40;0.80;;;0.80;;
17848;SDS011;9050;48.746;9.232;2023-03-25T06:59:07;0.70;;;0.70;;
17848;SDS011;9050;48.746;9.232;2023-03-25T07:01:35;0.60;;;0.60;;
17848;SDS011;9050;48.746;9.232;2023-03-25T07:04:02;0.67;;;0.67;;
17848;SDS011;9050;48.746;9.232;2023-03-25T07:06:29;0.70;;;0.70;;
17848;SDS011;9050;48.746;9.232;2023-03-25T07:08:56;0.70;;;0.70;;
17848;SDS011;9050;48.746;9.232;2023-03-25T07:11:24;0.70;;;0.70;;
17848;SDS011;9050;48.746;9.232;2023-03-25T07:13:52;0.63;;;0.63;;
17848;SDS011;9050;48.746;9.232;2023-03-25T07:16:19;0.63;;;0.63;;
17848;SDS011;9050;48.746;9.232;2023-03-25T07:18:48;0.90;;;0.90;;
17848;SDS011;9050;48.746;9.232;2023-03-25T07:21:15;0.77;;;0.77;;
17848;SDS011;9050;48.746;9.232;2023-03-25T07:23:42;0.70;;;0.70;;
17848;SDS011;9050;48.746;9.232;2023-03-25T07:26:09;0.80;;;0.80;;
17848;SDS011;9050;48.746;9.232;2023-03-25T07:28:37;1.00;;;1.00;;
17848;SDS011;9050;48.746;9.232;2023-03-25T07:31:05;1.00;;;1.00;;
17848;SDS011;9050;48.746;9.232;2023-03-25T07:33:33;0.70;;;0.70;;
17848;SDS011;9050;48.746;9.232;2023-03-25T07:36:12;0.97;;;0.97;;
17848;SDS011;9050;48.746;9.232;2023-03-25T07:38:39;0.70;;;0.70;;
17848;SDS011;9050;48.746;9.232;2023-03-25T07:41:06;0.80;;;0.80;;
17848;SDS011;9050;48.746;9.232;2023-03-25T07:43:34;0.80;;;0.80;;
17848;SDS011;9050;48.746;9.232;2023-03-25T07:46:01;0.70;;;0.70;;
17848;SDS011;9050;48.746;9.232;2023-03-25T07:48:28;0.60;;;0.60;;
17848;SDS011;9050;48.746;9.232;2023-03-25T07:50:55;0.57;;;0.57;;
17848;SDS011;9050;48.746;9.232;2023-03-25T07:53:24;0.70;;;0.70;;
17848;SDS011;9050;48.746;9.232;2023-03-25T07:55:51;0.50;;;0.50;;
17848;SDS011;9050;48.746;9.232;2023-03-25T07:58:18;0.43;;;0.43;;
17848;SDS011;9050;48.746;9.232;2023-03-25T08:00:45;0.30;;;0.30;;
17848;SDS011;9050;48.746;9.232;2023-03-25T08:03:13;0.30;;;0.30;;
17848;SDS011;9050;48.746;9.232;2023-03-25T08:05:42;0.30;;;0.30;;
17848;SDS011;9050;48.746;9.232;2023-03-25T08:08:10;0.40;;;0.40;;
17848;SDS011;9050;48.746;9.232;2023-03-25T08:10:39;0.30;;;0.30;;
17848;SDS011;9050;48.746;9.232;2023-03-25T08:13:07;0.40;;;0.40;;
17848;SDS011;9050;48.746;9.232;2023-03-25T08:15:35;0.40;;;0.40;;
17848;SDS011;9050;48.746;9.232;2023-03-25T08:18:01;0.40;;;0.40;;
17848;SDS011;9050;48.746;9.232;2023-03-25T08:20:30;0.57;;;0.57;;
17848;SDS011;9050;48.746;9.232;2023-03-25T08:22:57;0.40;;;0.40;;
17848;SDS011;9050;48.746;9.232;2023-03-25T08:25:24;0.50;;;0.50;;
17848;SDS011;9050;48.746;9.232;2023-03-25T08:27:52;0.83;;;0.83;;
17848;SDS011;9050;48.746;9.232;2023-03-25T08:30:18;0.70;;;0.70;;
17848;SDS011;9050;48.746;9.232;2023-03-25T08:32:46;0.60;;;0.60;;
17848;SDS011;9050;48.746;9.232;2023-03-25T08:35:18;0.70;;;0.70;;
17848;SDS011;9050;48.746;9.232;2023-03-25T08:37:45;0.60;;;0.60;;
17848;SDS011;9050;48.746;9.232;2023-03-25T08:40:12;0.50;;;0.50;;
17848;SDS011;9050;48.746;9.232;2023-03-25T08:42:41;0.50;;;0.50;;
17848;SDS011;9050;48.746;9.232;2023-03-25T08:45:10;0.70;;;0.70;;
17848;SDS011;9050;48.746;9.232;2023-03-25T08:47:39;0.80;;;0.80;;
17848;SDS011;9050;48.746;9.232;2023-03-25T08:50:07;0.70;;;0.70;;
17848;SDS011;9050;48.746;9.232;2023-03-25T08:52:34;0.63;;;0.63;;
17848;SDS011;9050;48.746;9.232;2023-03-25T08:55:01;0.70;;;0.70;;
17848;SDS011;9050;48.746;9.232;2023-03-25T08:57:28;0.90;;;0.90;;
17848;SDS011;9050;48.746;9.232;2023-03-25T08:59:55;0.90;;;0.90;;
17848;SDS011;9050;48.746;9.232;2023-03-25T09:02:23;0.70;;;0.70;;
17848;SDS011;9050;48.746;9.232;2023-03-25T09:04:51;0.67;;;0.67;;
17848;SDS011;9050;48.746;9.232;2023-03-25T09:07:18;0.70;;;0.70;;
17848;SDS011;9050;48.746;9.232;2023-03-25T09:09:47;0.60;;;0.60;;
17848;SDS011;9050;48.746;9.232;2023-03-25T09:12:14;0.70;;;0.70;;
17848;SDS011;9050;48.746;9.232;2023-03-25T09:14:40;0.87;;;0.87;;
17848;SDS011;9050;48.746;9.232;2023-03-25T09:17:07;0.70;;;0.70;;
17848;SDS011;9050;48.746;9.232;2023-03-25T09:19:36;0.83;;;0.83;;
17848;SDS011;9050;48.746;9.232;2023-03-25T09:22:03;1.00;;;1.00;;
17848;SDS011;9050;48.746;9.232;2023-03-25T09:24:30;1.00;;;1.00;;
17848;SDS011;9050;48.746;9.232;2023-03-25T09:26:58;0.90;;;0.90;;
17848;SDS011;9050;48.746;9.232;2023-03-25T09:29:25;0.70;;;0.70;;
17848;SDS011;9050;48.746;9.232;2023-03-25T09:31:53;0.57;;;0.57;;
17848;SDS011;9050;48.746;9.232;2023-03-25T09:34:22;0.60;;;0.60;;
17848;SDS011;9050;48.746;9.232;2023-03-25T09:36:50;0.77;;;0.77;;
17848;SDS011;9050;48.746;9.232;2023-03-25T09:39:17;0.80;;;0.80;;
17848;SDS011;9050;48.746;9.232;2023-03-25T09:41:56;0.70;;;0.70;;
17848;SDS011;9050;48.746;9.232;2023-03-25T09:44:31;0.60;;;0.60;;
17848;SDS011;9050;48.746;9.232;2023-03-25T09:47:00;0.70;;;0.70;;
17848;SDS011;9050;48.746;9.232;2023-03-25T09:49:32;0.50;;;0.50;;
17848;SDS011;9050;48.746;9.232;2023-03-25T09:52:05;0.60;;;0.60;;
17848;SDS011;9050;48.746;9.232;2023-03-25T09:54:47;0.50;;;0.50;;
17848;SDS011;9050;48.746;9.232;2023-03-25T09:57:17;0.50;;;0.50;;
17848;SDS011;9050;48.746;9.232;2023-03-25T09:59:48;0.50;;;0.50;;
17848;SDS011;9050;48.746;9.232;2023-03-25T10:02:20;0.70;;;0.70;;
17848;SDS011;9050;48.746;9.232;2023-03-25T10:04:58;0.60;;;0.60;;
17848;SDS011;9050;48.746;9.232;2023-03-25T10:07:54;0.60;;;0.60;;
17848;SDS011;9050;48.746;9.232;2023-03-25T10:10:31;0.60;;;0.60;;
17848;SDS011;9050;48.746;9.232;2023-03-25T10:13:06;0.50;;;0.50;;
17848;SDS011;9050;48.746;9.232;2023-03-25T10:15:39;0.50;;;0.50;;
17848;SDS011;9050;48.746;9.232;2023-03-25T10:18:24;0.40;;;0.40;;
17848;SDS011;9050;48.746;9.232;2023-03-25T10:21:02;0.50;;;0.50;;
17848;SDS011;9050;48.746;9.232;2023-03-25T10:23:40;0.40;;;0.40;;
17848;SDS011;9050;48.746;9.232;2023-03-25T10:26:11;0.60;;;0.60;;
17848;SDS011;9050;48.746;9.232;2023-03-25T10:28:43;0.60;;;0.60;;
17848;SDS011;9050;48.746;9.232;2023-03-25T10:31:15;0.50;;;0.50;;
17848;SDS011;9050;48.746;9.232;2023-03-25T10:33:47;0.50;;;0.50;;
17848;SDS011;9050;48.746;9.232;2023-03-25T10:36:18;0.40;;;0.40;;
17848;SDS011;9050;48.746;9.232;2023-03-25T10:38:52;0.63;;;0.63;;
17848;SDS011;9050;48.746;9.232;2023-03-25T10:41:22;0.53;;;0.53;;
17848;SDS011;9050;48.746;9.232;2023-03-25T10:43:51;0.60;;;0.60;;
17848;SDS011;9050;48.746;9.232;2023-03-25T10:46:21;0.40;;;0.40;;
17848;SDS011;9050;48.746;9.232;2023-03-25T10:48:53;0.50;;;0.50;;
17848;SDS011;9050;48.746;9.232;2023-03-25T10:51:21;0.50;;;0.50;;
17848;SDS011;9050;48.746;9.232;2023-03-25T10:53:53;0.60;;;0.60;;
17848;SDS011;9050;48.746;9.232;2023-03-25T10:56:20;0.60;;;0.60;;
17848;SDS011;9050;48.746;9.232;2023-03-25T10:58:51;0.50;;;0.50;;
17848;SDS011;9050;48.746;9.232;2023-03-25T11:01:20;0.40;;;0.40;;
17848;SDS011;9050;48.746;9.232;2023-03-25T11:03:55;0.50;;;0.50;;
17848;SDS011;9050;48.746;9.232;2023-03-25T11:06:25;0.53;;;0.53;;
17848;SDS011;9050;48.746;9.232;2023-03-25T11:08:57;0.60;;;0.60;;
17848;SDS011;9050;48.746;9.232;2023-03-25T11:11:36;0.70;;;0.70;;
17848;SDS011;9050;48.746;9.232;2023-03-25T11:14:03;0.60;;;0.60;;
17848;SDS011;9050;48.746;9.232;2023-03-25T11:16:30;0.60;;;0.60;;
17848;SDS011;9050;48.746;9.232;2023-03-25T11:18:59;0.63;;;0.63;;
17848;SDS011;9050;48.746;9.232;2023-03-25T11:21:29;0.50;;;0.50;;
17848;SDS011;9050;48.746;9.232;2023-03-25T11:23:59;0.70;;;0.70;;
17848;SDS011;9050;48.746;9.232;2023-03-25T11:26:26;0.70;;;0.70;;
17848;SDS011;9050;48.746;9.232;2023-03-25T11:28:59;0.60;;;0.60;;
17848;SDS011;9050;48.746;9.232;2023-03-25T11:31:32;0.60;;;0.60;;
17848;SDS011;9050;48.746;9.232;2023-03-25T11:34:04;0.60;;;0.60;;
17848;SDS011;9050;48.746;9.232;2023-03-25T11:36:40;0.50;;;0.50;;
17848;SDS011;9050;48.746;9.232;2023-03-25T11:39:16;0.50;;;0.50;;
17848;SDS011;9050;48.746;9.232;2023-03-25T11:41:50;0.60;;;0.60;;
17848;SDS011;9050;48.746;9.232;2023-03-25T11:44:20;0.60;;;0.60;;
17848;SDS011;9050;48.746;9.232;2023-03-25T11:46:50;0.60;;;0.60;;
17848;SDS011;9050;48.746;9.232;2023-03-25T11:49:21;0.60;;;0.60;;
17848;SDS011;9050;48.746;9.232;2023-03-25T11:51:50;0.50;;;0.50;;
17848;SDS011;9050;48.746;9.232;2023-03-25T11:54:24;0.70;;;0.70;;
17848;SDS011;9050;48.746;9.232;2023-03-25T11:56:52;0.60;;;0.60;;
17848;SDS011;9050;48.746;9.232;2023-03-25T11:59:22;0.60;;;0.60;;
17848;SDS011;9050;48.746;9.232;2023-03-25T12:01:51;0.70;;;0.70;;
17848;SDS011;9050;48.746;9.232;2023-03-25T12:04:27;0.70;;;0.70;;
17848;SDS011;9050;48.746;9.232;2023-03-25T12:06:56;0.50;;;0.50;;
17848;SDS011;9050;48.746;9.232;2023-03-25T12:09:27;0.70;;;0.70;;
17848;SDS011;9050;48.746;9.232;2023-03-25T12:11:59;0.70;;;0.70;;
17848;SDS011;9050;48.746;9.232;2023-03-25T12:14:39;0.60;;;0.60;;
17848;SDS011;9050;48.746;9.232;2023-03-25T12:17:16;0.70;;;0.70;;
17848;SDS011;9050;48.746;9.232;2023-03-25T12:19:54;0.50;;;0.50;;
17848;SDS011;9050;48.746;9.232;2023-03-25T12:22:34;0.60;;;0.60;;
17848;SDS011;9050;48.746;9.232;2023-03-25T12:25:19;0.70;;;0.70;;
17848;SDS011;9050;48.746;9.232;2023-03-25T12:27:58;0.60;;;0.60;;
17848;SDS011;9050;48.746;9.232;2023-03-25T12:30:38;0.60;;;0.60;;
17848;SDS011;9050;48.746;9.232;2023-03-25T12:33:19;0.60;;;0.60;;
17848;SDS011;9050;48.746;9.232;2023-03-25T12:36:03;0.60;;;0.60;;
17848;SDS011;9050;48.746;9.232;2023-03-25T12:38:41;0.60;;;0.60;;
17848;SDS011;9050;48.746;9.232;2023-03-25T12:41:21;0.50;;;0.50;;
17848;SDS011;9050;48.746;9.232;2023-03-25T12:43:57;0.60;;;0.60;;
17848;SDS011;9050;48.746;9.232;2023-03-25T12:46:38;0.60;;;0.60;;
17848;SDS011;9050;48.746;9.232;2023-03-25T12:52:17;0.80;;;0.80;;
17848;SDS011;9050;48.746;9.232;2023-03-25T12:54:57;0.67;;;0.67;;
17848;SDS011;9050;48.746;9.232;2023-03-25T12:57:38;0.70;;;0.70;;
17848;SDS011;9050;48.746;9.232;2023-03-25T13:00:21;0.73;;;0.73;;
17848;SDS011;9050;48.746;9.232;2023-03-25T13:03:05;0.60;;;0.60;;
17848;SDS011;9050;48.746;9.232;2023-03-25T13:05:55;0.73;;;0.73;;
17848;SDS011;9050;48.746;9.232;2023-03-25T13:08:26;0.70;;;0.70;;
17848;SDS011;9050;48.746;9.232;2023-03-25T13:10:59;0.90;;;0.90;;
17848;SDS011;9050;48.746;9.232;2023-03-25T13:13:33;0.80;;;0.80;;
17848;SDS011;9050;48.746;9.232;2023-03-25T13:16:03;0.63;;;0.63;;
17848;SDS011;9050;48.746;9.232;2023-03-25T13:18:34;0.70;;;0.70;;
17848;SDS011;9050;48.746;9.232;2023-03-25T13:21:05;0.80;;;0.80;;
17848;SDS011;9050;48.746;9.232;2023-03-25T13:23:37;0.50;;;0.50;;
17848;SDS011;9050;48.746;9.232;2023-03-25T13:26:06;0.60;;;0.60;;
17848;SDS011;9050;48.746;9.232;2023-03-25T13:28:38;0.60;;;0.60;;
17848;SDS011;9050;48.746;9.232;2023-03-25T13:31:11;0.50;;;0.50;;
17848;SDS011;9050;48.746;9.232;2023-03-25T13:33:41;0.57;;;0.57;;
17848;SDS011;9050;48.746;9.232;2023-03-25T13:36:13;0.60;;;0.60;;
17848;SDS011;9050;48.746;9.232;2023-03-25T13:38:45;0.50;;;0.50;;
17848;SDS011;9050;48.746;9.232;2023-03-25T13:41:16;0.70;;;0.70;;
17848;SDS011;9050;48.746;9.232;2023-03-25T13:43:50;0.70;;;0.70;;
17848;SDS011;9050;48.746;9.232;2023-03-25T13:46:23;0.73;;;0.73;;
17848;SDS011;9050;48.746;9.232;2023-03-25T13:48:57;0.63;;;0.63;;
17848;SDS011;9050;48.746;9.232;2023-03-25T13:51:28;0.60;;;0.60;;
17848;SDS011;9050;48.746;9.232;2023-03-25T13:53:56;0.70;;;0.70;;
17848;SDS011;9050;48.746;9.232;2023-03-25T13:56:32;0.60;;;0.60;;
17848;SDS011;9050;48.746;9.232;2023-03-25T13:59:30;0.80;;;0.80;;
17848;SDS011;9050;48.746;9.232;2023-03-25T14:02:31;0.67;;;0.67;;
17848;SDS011;9050;48.746;9.232;2023-03-25T14:08:25;0.67;;;0.67;;
17848;SDS011;9050;48.746;9.232;2023-03-25T14:11:18;0.70;;;0.70;;
17848;SDS011;9050;48.746;9.232;2023-03-25T14:13:51;0.70;;;0.70;;
17848;SDS011;9050;48.746;9.232;2023-03-25T14:16:22;0.70;;;0.70;;
17848;SDS011;9050;48.746;9.232;2023-03-25T14:18:54;0.77;;;0.77;;
17848;SDS011;9050;48.746;9.232;2023-03-25T14:21:29;0.70;;;0.70;;
17848;SDS011;9050;48.746;9.232;2023-03-25T14:23:59;0.60;;;0.60;;
17848;SDS011;9050;48.746;9.232;2023-03-25T14:26:30;0.87;;;0.87;;
17848;SDS011;9050;48.746;9.232;2023-03-25T14:28:58;0.60;;;0.60;;
17848;SDS011;9050;48.746;9.232;2023-03-25T14:31:32;0.77;;;0.77;;
17848;SDS011;9050;48.746;9.232;2023-03-25T14:39:59;0.77;;;0.77;;
17848;SDS011;9050;48.746;9.232;2023-03-25T14:42:42;0.70;;;0.70;;
17848;SDS011;9050;48.746;9.232;2023-03-25T14:48:27;0.60;;;0.60;;
17848;SDS011;9050;48.746;9.232;2023-03-25T14:51:08;0.70;;;0.70;;
17848;SDS011;9050;48.746;9.232;2023-03-25T14:53:48;0.53;;;0.53;;
17848;SDS011;9050;48.746;9.232;2023-03-25T14:56:18;0.70;;;0.70;;
17848;SDS011;9050;48.746;9.232;2023-03-25T14:58:49;0.60;;;0.60;;
17848;SDS011;9050;48.746;9.232;2023-03-25T15:01:18;0.60;;;0.60;;
17848;SDS011;9050;48.746;9.232;2023-03-25T15:03:48;0.60;;;0.60;;
17848;SDS011;9050;48.746;9.232;2023-03-25T15:06:15;0.70;;;0.70;;
17848;SDS011;9050;48.746;9.232;2023-03-25T15:08:49;0.60;;;0.60;;
17848;SDS011;9050;48.746;9.232;2023-03-25T15:11:24;0.67;;;0.67;;
17848;SDS011;9050;48.746;9.232;2023-03-25T15:13:54;0.60;;;0.60;;
17848;SDS011;9050;48.746;9.232;2023-03-25T15:16:27;0.60;;;0.60;;
17848;SDS011;9050;48.746;9.232;2023-03-25T15:19:07;0.60;;;0.60;;
17848;SDS011;9050;48.746;9.232;2023-03-25T15:24:35;0.60;;;0.60;;
17848;SDS011;9050;48.746;9.232;2023-03-25T15:27:05;0.63;;;0.63;;
17848;SDS011;9050;48.746;9.232;2023-03-25T15:29:45;0.60;;;0.60;;
17848;SDS011;9050;48.746;9.232;2023-03-25T15:32:24;0.50;;;0.50;;
17848;SDS011;9050;48.746;9.232;2023-03-25T15:44:03;0.60;;;0.60;;
17848;SDS011;9050;48.746;9.232;2023-03-25T15:47:05;0.50;;;0.50;;
17848;SDS011;9050;48.746;9.232;2023-03-25T15:50:02;0.60;;;0.60;;
17848;SDS011;9050;48.746;9.232;2023-03-25T15:52:57;0.50;;;0.50;;
17848;SDS011;9050;48.746;9.232;2023-03-25T15:55:32;0.80;;;0.80;;
17848;SDS011;9050;48.746;9.232;2023-03-25T15:58:03;0.60;;;0.60;;
17848;SDS011;9050;48.746;9.232;2023-03-25T16:00:33;0.63;;;0.63;;